HTDO

Dodoma Airport

Dodoma, Tanzania
HTDO 171700Z 1718/1818 27009KT 9999 SCT027 FEW028CB SCT080 BECMG 1722/1800 TS/TSRA BECMG 1803/1806 NSW
Issued Valid From Valid To
Jan-17 @ 17:00 UTC
(7 hours ago)
Jan-17 @ 18:00 UTC
(6 hours ago)
Jan-18 @ 18:00 UTC
(in 18 hours)
Expired Click to View Jan-17 @ 18:00 to Jan-17 @ 22:00
HTDO 171700Z 1718/1818 27009KT 9999 SCT027 FEW028CB SCT080
Wind Visibility Clouds
270° at 9 knots 10,000+ meters
  • Scattered at 2,700' AGL
  • Few at 2,800' AGL
  • Scattered at 8,000' AGL
Becoming Jan-17 @ 22:00 to Jan-18 @ 03:00
BECMG 1722/1800 TS/TSRA
Wind Visibility Clouds Conditions
270° at 9 knots 10,000+ meters
  • Scattered at 2,700' AGL
  • Few at 2,800' AGL
  • Scattered at 8,000' AGL
  • Thunderstorm
  • Rain
  • Thunderstorm
Becoming Jan-18 @ 03:00 to Jan-18 @ 18:00
BECMG 1803/1806 NSW
Wind Visibility Clouds Conditions
270° at 9 knots 10,000+ meters
  • Scattered at 2,700' AGL
  • Few at 2,800' AGL
  • Scattered at 8,000' AGL
HTDO 171700Z 1718/1818 27009KT 9999 SCT027 FEW028CB SCT080 BECMG 1722/1800 TS/TSRA BECMG 1803/1806 NSW
Issued Jan-17 @ 17:00 UTC
(7 hours ago)
Valid From Jan-17 @ 18:00 UTC
(6 hours ago)
Valid To Jan-18 @ 18:00 UTC
(in 18 hours)
Jan-17 @ 18:00 - Jan-17 @ 22:00
Wind Visibility
270° at 9 knots 10,000+ meters
Clouds
  • Scattered at 2,700' AGL
  • Few at 2,800' AGL
  • Scattered at 8,000' AGL
Becoming Jan-17 @ 22:00 - Jan-18 @ 03:00
Wind Visibility
270° at 9 knots 10,000+ meters
Clouds
  • Scattered at 2,700' AGL
  • Few at 2,800' AGL
  • Scattered at 8,000' AGL
Conditions
  • Thunderstorm
  • Rain
  • Thunderstorm
Becoming Jan-18 @ 03:00 - Jan-18 @ 18:00
Wind Visibility
270° at 9 knots 10,000+ meters
Clouds
  • Scattered at 2,700' AGL
  • Few at 2,800' AGL
  • Scattered at 8,000' AGL
Conditions